Time;durP1;ratioP1;P1;durP2;ratioP2;P2;SDS_P1;SDS_P2;PMS_P1;PMS_P2;Temp;Humidity;BMP_temperature;BMP_pressure;BME280_temperature;BME280_humidity;BME280_pressure;Samples;Min_cycle;Max_cycle;Signal;HPM_P1;HPM_P2
2022/05/01 00:01:09;;;;;;;6.82;3.88;;;5.50;99.90;;;;;;5030368;28;20508;-63
2022/05/01 00:04:34;;;;;;;8.02;4.00;;;5.50;99.90;;;;;;5033198;28;20064;-64
2022/05/01 00:08:00;;;;;;;6.75;4.03;;;5.40;99.90;;;;;;5040520;28;20036;-64
2022/05/01 00:11:25;;;;;;;10.15;3.83;;;5.40;99.90;;;;;;5041629;28;20108;-64
2022/05/01 00:14:11;;;;;;;5.30;3.45;;;5.40;99.90;;;;;;5043950;28;20059;-63
2022/05/01 00:16:36;;;;;;;5.22;2.78;;;5.40;99.90;;;;;;5047214;28;20037;-64
2022/05/01 00:19:02;;;;;;;10.50;4.45;;;5.40;99.90;;;;;;5043542;28;20036;-64
2022/05/01 00:21:27;;;;;;;5.93;3.78;;;5.40;99.90;;;;;;5047371;28;20036;-64
2022/05/01 00:23:53;;;;;;;7.35;3.88;;;5.30;99.90;;;;;;5042121;28;20112;-64
2022/05/01 00:26:19;;;;;;;8.07;4.47;;;5.30;99.90;;;;;;5046051;28;20045;-64
2022/05/01 00:28:45;;;;;;;7.78;3.25;;;5.30;99.90;;;;;;5041181;28;20031;-64
2022/05/01 00:31:10;;;;;;;9.23;3.97;;;5.30;99.90;;;;;;5049719;28;20111;-64
2022/05/01 00:36:28;;;;;;;7.90;3.95;;;5.30;99.90;;;;;;5011753;28;20040;-64
2022/05/01 00:39:03;;;;;;;8.35;4.15;;;5.30;99.90;;;;;;5041919;28;20111;-64
2022/05/01 00:41:36;;;;;;;7.37;3.90;;;5.20;99.90;;;;;;5011492;28;20161;-64
2022/05/01 00:44:08;;;;;;;6.70;4.15;;;5.20;99.90;;;;;;5046542;28;20044;-64
2022/05/01 00:46:36;;;;;;;7.13;3.80;;;5.10;99.90;;;;;;5031091;28;20037;-64
2022/05/01 00:49:04;;;;;;;8.48;3.78;;;5.10;99.90;;;;;;5048617;28;20033;-64
2022/05/01 00:51:31;;;;;;;9.70;4.63;;;5.10;99.90;;;;;;5050628;28;20154;-64
2022/05/01 00:53:57;;;;;;;9.23;3.90;;;5.00;99.90;;;;;;5045863;28;20025;-64
2022/05/01 00:56:24;;;;;;;8.50;4.78;;;5.10;99.90;;;;;;5050618;28;20025;-64
2022/05/01 00:58:51;;;;;;;7.72;4.07;;;5.00;99.90;;;;;;5044998;28;20036;-64
2022/05/01 01:01:56;;;;;;;8.85;3.90;;;5.00;99.90;;;;;;5047118;28;20040;-63
2022/05/01 01:05:21;;;;;;;13.18;4.70;;;5.00;99.90;;;;;;5050809;28;20033;-64
2022/05/01 01:08:47;;;;;;;7.20;3.08;;;5.00;99.90;;;;;;5028206;28;20040;-64
2022/05/01 01:14:42;;;;;;;;;;;5.10;99.90;;;;;;5035541;28;20420;-63
2022/05/01 01:17:08;;;;;;;7.18;3.00;;;5.10;99.90;;;;;;5048474;28;19969;-63
2022/05/01 01:19:33;;;;;;;8.20;3.33;;;5.10;99.90;;;;;;5050418;28;20040;-64
2022/05/01 01:21:59;;;;;;;5.97;4.07;;;5.10;99.90;;;;;;5029380;28;20036;-63
2022/05/01 01:24:26;;;;;;;9.45;4.63;;;5.10;99.90;;;;;;5050275;28;20155;-63
2022/05/01 01:26:52;;;;;;;4.72;3.20;;;5.10;99.90;;;;;;5030622;28;20029;-64
2022/05/01 01:32:03;;;;;;;9.40;3.70;;;5.00;99.90;;;;;;5010255;28;20052;-64
2022/05/01 01:34:34;;;;;;;8.20;4.32;;;4.90;99.90;;;;;;5050112;28;20452;-64
2022/05/01 01:37:01;;;;;;;11.18;4.70;;;4.90;99.90;;;;;;5009597;28;20112;-63
2022/05/01 01:39:26;;;;;;;9.82;4.18;;;4.90;99.90;;;;;;5049918;28;20021;-63
2022/05/01 01:41:54;;;;;;;10.45;4.45;;;4.90;99.90;;;;;;5030216;28;20036;-64
2022/05/01 01:44:21;;;;;;;10.15;3.78;;;4.80;99.90;;;;;;5047922;28;20025;-63
2022/05/01 01:46:47;;;;;;;10.32;4.07;;;4.80;99.90;;;;;;5030301;28;20087;-64
2022/05/01 01:49:12;;;;;;;7.90;4.25;;;4.80;99.90;;;;;;5047364;28;20029;-64
2022/05/01 01:51:38;;;;;;;7.35;4.50;;;4.80;99.90;;;;;;5047419;28;20455;-63
2022/05/01 01:54:06;;;;;;;7.90;4.18;;;4.80;99.90;;;;;;5049533;28;20017;-63
2022/05/01 01:56:31;;;;;;;11.35;4.43;;;4.80;99.90;;;;;;5027609;28;20073;-63
2022/05/01 01:58:57;;;;;;;5.90;3.70;;;4.70;99.90;;;;;;5029446;28;20514;-64
2022/05/01 02:02:03;;;;;;;4.25;3.10;;;4.70;99.90;;;;;;5046569;28;20029;-63
2022/05/01 02:05:28;;;;;;;9.75;4.88;;;4.60;99.90;;;;;;5037788;28;20381;-64
2022/05/01 02:08:54;;;;;;;7.30;4.05;;;4.60;99.90;;;;;;5036253;28;20033;-63
2022/05/01 02:11:59;;;;;;;6.63;3.92;;;4.50;99.90;;;;;;5041640;28;20550;-63
2022/05/01 02:14:24;;;;;;;6.75;3.55;;;4.50;99.90;;;;;;5047308;28;20565;-63
2022/05/01 02:16:50;;;;;;;7.47;4.20;;;4.50;99.90;;;;;;5030163;28;20611;-63
2022/05/01 02:19:15;;;;;;;9.70;4.10;;;4.40;99.90;;;;;;5049471;28;20036;-63
2022/05/01 02:21:41;;;;;;;7.45;4.10;;;4.40;99.90;;;;;;5029195;28;20026;-64
2022/05/01 02:24:08;;;;;;;6.80;3.83;;;4.30;99.90;;;;;;5047857;28;20036;-63
2022/05/01 02:26:38;;;;;;;8.45;4.13;;;4.30;99.90;;;;;;5027964;28;20452;-63
2022/05/01 02:29:12;;;;;;;7.25;4.78;;;4.20;99.90;;;;;;5047736;28;20033;-64
2022/05/01 02:31:39;;;;;;;8.00;3.80;;;4.20;99.90;;;;;;5009268;28;20037;-63
2022/05/01 02:34:04;;;;;;;8.43;4.00;;;4.20;99.90;;;;;;5048920;28;20104;-63
2022/05/01 02:36:30;;;;;;;9.90;4.53;;;4.10;99.90;;;;;;5029486;28;20456;-64
2022/05/01 02:38:55;;;;;;;5.55;3.40;;;4.10;99.90;;;;;;5046881;28;20116;-64
2022/05/01 02:41:21;;;;;;;8.45;4.80;;;4.10;99.90;;;;;;5029191;28;20634;-63
2022/05/01 02:43:47;;;;;;;7.68;4.40;;;4.10;99.90;;;;;;5046368;28;20557;-63
2022/05/01 02:46:14;;;;;;;7.57;4.47;;;4.00;99.90;;;;;;5048630;28;20021;-64
2022/05/01 02:48:39;;;;;;;6.72;4.32;;;4.00;99.90;;;;;;5044911;28;20029;-64
2022/05/01 02:51:05;;;;;;;10.73;4.78;;;4.00;99.90;;;;;;5048651;28;20025;-63
2022/05/01 02:53:33;;;;;;;10.20;3.60;;;3.90;99.90;;;;;;5043144;28;20029;-64
2022/05/01 02:56:02;;;;;;;6.68;3.70;;;3.90;99.90;;;;;;5048280;28;20037;-63
2022/05/01 02:58:29;;;;;;;4.85;3.33;;;3.90;99.90;;;;;;5043000;28;20032;-63
2022/05/01 03:01:34;;;;;;;11.10;4.40;;;4.00;99.90;;;;;;5045223;28;20029;-63
2022/05/01 03:04:59;;;;;;;7.88;3.88;;;4.00;99.90;;;;;;5048232;28;20041;-63
2022/05/01 03:08:25;;;;;;;7.47;3.80;;;4.00;99.90;;;;;;5034968;28;20036;-63
2022/05/01 03:11:50;;;;;;;7.93;4.18;;;3.90;99.90;;;;;;5044524;28;20037;-61
2022/05/01 03:14:23;;;;;;;6.80;4.07;;;4.00;99.90;;;;;;5047514;28;20041;-61
2022/05/01 03:16:48;;;;;;;10.27;4.20;;;4.00;99.90;;;;;;5046214;28;20052;-61
2022/05/01 03:22:15;;;;;;;7.95;4.35;;;4.00;99.90;;;;;;5013667;28;20044;-61
2022/05/01 03:24:42;;;;;;;4.70;3.13;;;4.00;99.90;;;;;;5048117;28;20055;-60
2022/05/01 03:27:09;;;;;;;5.25;3.40;;;4.00;99.90;;;;;;5031457;28;20020;-60
2022/05/01 03:29:35;;;;;;;6.10;3.10;;;4.10;99.90;;;;;;5048078;28;20025;-61
2022/05/01 03:32:01;;;;;;;7.90;3.88;;;4.10;99.90;;;;;;5030333;28;20028;-61
2022/05/01 03:34:27;;;;;;;7.60;3.60;;;4.20;99.90;;;;;;5047914;28;20041;-61
2022/05/01 03:36:53;;;;;;;7.05;3.72;;;4.30;99.90;;;;;;5029285;28;20078;-63
2022/05/01 03:39:20;;;;;;;8.10;4.10;;;4.30;99.90;;;;;;5047985;28;20033;-62
2022/05/01 03:41:46;;;;;;;10.18;4.25;;;4.40;99.90;;;;;;5028315;28;20048;-62
2022/05/01 03:44:11;;;;;;;5.40;3.42;;;4.40;99.90;;;;;;5047958;28;20599;-64
2022/05/01 03:46:38;;;;;;;10.63;3.97;;;4.50;99.90;;;;;;5027270;28;20045;-63
2022/05/01 03:49:04;;;;;;;9.95;4.43;;;4.50;99.90;;;;;;5047667;28;20045;-63
2022/05/01 03:51:33;;;;;;;6.95;4.05;;;4.60;99.90;;;;;;5028252;28;20083;-63
2022/05/01 03:54:02;;;;;;;8.50;4.30;;;4.70;99.90;;;;;;5027795;28;20029;-64
2022/05/01 03:56:29;;;;;;;12.57;4.65;;;4.80;99.90;;;;;;5045098;28;20040;-63
2022/05/01 03:58:55;;;;;;;6.63;3.50;;;4.90;99.90;;;;;;5047527;28;20108;-63
2022/05/01 04:02:00;;;;;;;6.53;3.53;;;5.00;99.90;;;;;;5033011;28;20454;-64
2022/05/01 04:05:26;;;;;;;6.72;4.32;;;5.10;99.90;;;;;;5038186;28;20057;-64
2022/05/01 04:08:52;;;;;;;3.88;2.80;;;5.30;99.90;;;;;;5040242;28;20036;-63
2022/05/01 04:11:56;;;;;;;6.82;3.72;;;5.50;99.90;;;;;;5034865;28;20679;-63
2022/05/01 04:14:22;;;;;;;5.07;3.10;;;5.60;99.90;;;;;;5013693;28;20113;-63
2022/05/01 04:16:47;;;;;;;6.18;3.55;;;5.70;99.90;;;;;;5051522;28;20120;-63
2022/05/01 04:19:13;;;;;;;8.52;3.88;;;5.80;99.90;;;;;;5049222;28;20029;-63
2022/05/01 04:21:39;;;;;;;6.53;3.58;;;5.90;99.90;;;;;;5030856;28;20780;-63
2022/05/01 04:24:05;;;;;;;6.90;4.22;;;6.10;99.90;;;;;;5029757;28;20128;-64
2022/05/01 04:26:31;;;;;;;4.93;3.00;;;6.20;99.90;;;;;;5039499;28;20105;-63
2022/05/01 04:31:40;;;;;;;5.15;3.38;;;6.40;99.90;;;;;;5033653;28;20124;-63
2022/05/01 04:34:06;;;;;;;5.78;3.47;;;6.60;99.90;;;;;;5028056;28;20546;-63
2022/05/01 04:36:32;;;;;;;6.22;2.88;;;6.70;99.90;;;;;;5031920;28;20497;-63
2022/05/01 04:38:57;;;;;;;6.18;3.58;;;6.80;99.90;;;;;;5047154;28;20033;-63
2022/05/01 04:42:03;;;;;;;4.07;2.85;;;7.00;99.90;;;;;;5044243;28;20059;-63
2022/05/01 04:45:28;;;;;;;6.57;3.42;;;7.30;99.90;;;;;;5040402;28;20033;-63
2022/05/01 04:48:53;;;;;;;6.35;3.00;;;7.50;99.90;;;;;;5029169;28;20104;-63
2022/05/01 04:52:19;;;;;;;5.07;3.60;;;7.70;99.90;;;;;;5043981;28;20040;-64
2022/05/01 04:55:44;;;;;;;12.07;3.50;;;8.00;99.90;;;;;;5029776;28;20055;-63
2022/05/01 04:59:10;;;;;;;4.40;3.08;;;8.20;98.90;;;;;;5008436;28;20045;-63
2022/05/01 05:02:36;;;;;;;7.82;3.58;;;8.60;96.70;;;;;;5044832;28;20033;-63
2022/05/01 05:06:01;;;;;;;9.80;3.60;;;9.50;94.40;;;;;;5029259;28;20037;-63
2022/05/01 05:12:50;;;;;;;6.22;2.88;;;10.50;82.80;;;;;;5030397;28;20095;-63
2022/05/01 05:16:15;;;;;;;8.68;3.13;;;10.70;79.40;;;;;;5027905;28;20068;-63
2022/05/01 05:19:41;;;;;;;6.93;2.47;;;10.90;74.60;;;;;;5022761;28;20619;-63
2022/05/01 05:23:06;;;;;;;5.45;3.35;;;11.20;73.40;;;;;;5036175;28;20029;-64
2022/05/01 05:26:31;;;;;;;5.32;3.30;;;11.80;70.90;;;;;;5027162;28;20048;-63
2022/05/01 05:29:57;;;;;;;6.07;3.40;;;12.00;65.20;;;;;;5044018;28;20118;-63
2022/05/01 05:33:22;;;;;;;5.43;3.13;;;12.30;64.90;;;;;;5042557;28;20044;-64
2022/05/01 05:36:47;;;;;;;4.53;2.97;;;12.70;61.50;;;;;;5034827;28;20217;-64
2022/05/01 05:40:13;;;;;;;5.68;2.58;;;15.20;51.60;;;;;;5039343;28;20484;-63
2022/05/01 05:43:39;;;;;;;5.00;2.40;;;18.10;38.10;;;;;;5028048;28;20061;-63
2022/05/01 05:47:04;;;;;;;4.38;2.70;;;16.40;33.60;;;;;;5023192;28;20045;-63
2022/05/01 05:50:29;;;;;;;4.35;2.78;;;15.30;39.70;;;;;;5039810;28;20074;-64
2022/05/01 05:53:54;;;;;;;4.63;2.80;;;14.80;42.50;;;;;;5026804;28;20032;-63
2022/05/01 05:57:20;;;;;;;4.57;2.67;;;14.50;41.50;;;;;;5042366;28;20043;-64
2022/05/01 06:00:45;;;;;;;3.67;2.60;;;14.90;43.70;;;;;;5036178;28;20036;-64
2022/05/01 06:04:10;;;;;;;4.07;2.15;;;16.20;39.50;;;;;;5035663;28;20117;-64
2022/05/01 06:07:36;;;;;;;5.57;2.35;;;19.70;27.80;;;;;;5029375;28;20033;-61
2022/05/01 06:11:01;;;;;;;3.55;2.30;;;22.40;23.80;;;;;;5028687;28;20037;-62
2022/05/01 06:13:46;;;;;;;4.40;2.40;;;24.10;13.70;;;;;;5034450;28;20099;-63
2022/05/01 06:16:12;;;;;;;3.33;2.35;;;25.10;17.50;;;;;;5026327;28;20049;-64
2022/05/01 06:18:37;;;;;;;3.05;2.38;;;25.70;15.70;;;;;;5042459;28;20036;-63
2022/05/01 06:21:03;;;;;;;2.72;1.80;;;26.40;14.90;;;;;;5044053;28;20098;-64
2022/05/01 06:24:08;;;;;;;3.22;2.40;;;27.20;13.50;;;;;;5044338;28;20021;-64
2022/05/01 06:27:35;;;;;;;3.90;1.95;;;27.70;6.10;;;;;;5016865;28;20037;-64
2022/05/01 06:31:02;;;;;;;4.05;2.35;;;28.20;5.20;;;;;;5031421;28;20461;-63
2022/05/01 06:34:30;;;;;;;4.28;2.30;;;28.30;4.70;;;;;;5027349;28;20041;-64
2022/05/01 06:37:56;;;;;;;3.40;2.40;;;28.00;1.20;;;;;;5022042;28;20037;-63
2022/05/01 06:41:21;;;;;;;3.63;2.03;;;28.30;4.70;;;;;;5017438;28;20037;-64
2022/05/01 06:44:46;;;;;;;3.90;2.10;;;28.70;1.80;;;;;;5031057;28;20508;-64
2022/05/01 06:48:12;;;;;;;3.30;2.25;;;29.20;1.20;;;;;;5026820;28;20042;-64
2022/05/01 06:51:37;;;;;;;3.80;1.98;;;29.80;1.00;;;;;;5030039;28;20064;-64
2022/05/01 06:55:02;;;;;;;3.10;1.80;;;30.10;1.00;;;;;;5023609;28;20037;-64
2022/05/01 06:58:28;;;;;;;3.83;2.00;;;30.20;1.60;;;;;;5042554;28;20045;-64
2022/05/01 07:01:53;;;;;;;2.53;1.70;;;30.60;1.00;;;;;;5020204;28;20048;-56
2022/05/01 07:05:18;;;;;;;3.65;2.50;;;31.20;1.00;;;;;;5036784;28;20044;-55
2022/05/01 07:08:44;;;;;;;4.25;1.90;;;31.20;1.00;;;;;;5021538;28;20413;-54
2022/05/01 07:11:57;;;;;;;1.90;1.40;;;31.40;1.00;;;;;;5024902;28;20037;-60
2022/05/01 07:14:23;;;;;;;3.50;2.40;;;31.40;1.00;;;;;;5029080;28;20401;-60
2022/05/01 07:16:49;;;;;;;3.58;1.70;;;31.60;1.00;;;;;;5032093;28;20508;-61
2022/05/01 07:19:15;;;;;;;2.97;1.52;;;31.80;1.00;;;;;;5042264;28;20056;-60
2022/05/01 07:21:40;;;;;;;2.83;1.42;;;31.70;1.00;;;;;;5026367;28;20025;-61
2022/05/01 07:24:06;;;;;;;3.10;1.95;;;31.10;1.00;;;;;;5044050;28;20053;-60
2022/05/01 07:26:35;;;;;;;4.45;1.83;;;31.40;1.00;;;;;;5034149;28;20404;-60
2022/05/01 07:29:02;;;;;;;2.67;1.77;;;31.70;1.00;;;;;;5045348;28;20492;-60
2022/05/01 07:31:28;;;;;;;3.00;1.75;;;32.30;1.00;;;;;;5034545;28;20037;-61
2022/05/01 07:33:53;;;;;;;3.70;1.80;;;31.90;1.00;;;;;;5044193;28;20035;-61
2022/05/01 07:36:19;;;;;;;2.08;1.83;;;31.90;1.00;;;;;;5035388;28;20064;-61
2022/05/01 07:38:48;;;;;;;3.08;1.45;;;32.60;1.00;;;;;;5044356;28;20684;-61
2022/05/01 07:41:16;;;;;;;4.00;1.73;;;32.60;1.00;;;;;;5036124;28;20030;-60
2022/05/01 07:43:45;;;;;;;4.10;1.58;;;33.20;1.00;;;;;;5044360;28;20021;-61
2022/05/01 07:46:12;;;;;;;4.88;1.77;;;33.20;1.00;;;;;;5036638;28;20037;-61
2022/05/01 07:49:17;;;;;;;3.42;1.55;;;33.00;1.00;;;;;;5043586;28;20028;-61
2022/05/01 07:52:42;;;;;;;2.42;1.60;;;33.00;1.00;;;;;;5034738;28;20605;-61
2022/05/01 07:56:08;;;;;;;2.85;1.70;;;33.10;1.00;;;;;;5031448;28;20140;-61
2022/05/01 07:59:33;;;;;;;4.20;1.70;;;30.60;1.00;;;;;;5037786;28;20195;-61
2022/05/01 08:06:22;;;;;;;5.05;2.13;;;27.70;1.00;;;;;;5028424;28;20040;-59
2022/05/01 08:09:48;;;;;;;3.35;1.55;;;26.90;1.00;;;;;;5040973;28;20424;-60
2022/05/01 08:12:33;;;;;;;3.80;1.65;;;25.80;1.00;;;;;;5041003;28;20082;-60
2022/05/01 08:14:59;;;;;;;6.38;2.03;;;25.50;1.00;;;;;;5039913;28;20058;-59
2022/05/01 08:17:24;;;;;;;5.43;2.17;;;26.40;1.00;;;;;;5028477;28;20017;-59
2022/05/01 08:22:34;;;;;;;3.92;1.75;;;26.30;1.00;;;;;;5030239;28;20460;-60
2022/05/01 08:24:59;;;;;;;3.40;2.10;;;26.10;1.00;;;;;;5046304;28;20044;-59
2022/05/01 08:27:24;;;;;;;2.85;1.88;;;26.00;1.00;;;;;;5028936;28;20021;-59
2022/05/01 08:29:51;;;;;;;5.10;1.80;;;26.50;1.00;;;;;;5046626;28;20028;-60
2022/05/01 08:32:16;;;;;;;4.15;2.00;;;26.50;1.00;;;;;;5026978;28;20029;-59
2022/05/01 08:34:42;;;;;;;3.80;1.63;;;26.00;1.00;;;;;;5046110;28;20029;-60
2022/05/01 08:37:47;;;;;;;2.50;1.55;;;27.10;1.00;;;;;;5026016;28;20029;-60
2022/05/01 08:41:13;;;;;;;2.17;1.60;;;29.10;1.00;;;;;;5025348;28;20087;-60
2022/05/01 08:44:38;;;;;;;4.35;2.17;;;30.90;1.00;;;;;;5039086;28;20037;-61
2022/05/01 08:48:10;;;;;;;2.33;1.60;;;31.90;1.00;;;;;;5036602;28;20554;-60
2022/05/01 08:51:35;;;;;;;3.65;2.05;;;32.80;1.00;;;;;;5019789;28;20033;-61
2022/05/01 08:55:00;;;;;;;3.22;2.10;;;32.00;1.00;;;;;;5049717;28;20033;-61
2022/05/01 08:58:26;;;;;;;3.25;2.08;;;31.40;1.00;;;;;;5036131;28;20037;-61
2022/05/01 09:01:54;;;;;;;2.83;2.10;;;30.50;1.00;;;;;;5027366;28;20029;-61
2022/05/01 09:05:19;;;;;;;4.95;2.10;;;32.10;1.00;;;;;;5038410;28;20045;-61
2022/05/01 09:08:45;;;;;;;5.82;2.10;;;32.40;1.00;;;;;;5009274;28;20563;-61
2022/05/01 09:14:43;;;;;;;2.10;1.65;;;33.40;1.00;;;;;;5034081;28;20126;-61
2022/05/01 09:17:12;;;;;;;2.58;1.90;;;33.40;1.00;;;;;;5027102;28;20025;-61
2022/05/01 09:19:38;;;;;;;4.32;2.35;;;32.70;1.00;;;;;;5029337;28;20037;-61
2022/05/01 09:22:03;;;;;;;2.58;1.90;;;33.10;1.00;;;;;;5034877;28;20122;-62
2022/05/01 09:24:30;;;;;;;2.58;1.80;;;32.90;1.00;;;;;;5049380;28;20036;-58
2022/05/01 09:26:57;;;;;;;4.13;1.60;;;33.00;1.00;;;;;;5031562;28;20021;-59
2022/05/01 09:29:24;;;;;;;2.53;1.92;;;33.70;1.00;;;;;;5049388;28;20104;-61
2022/05/01 09:31:50;;;;;;;2.00;1.70;;;34.00;1.00;;;;;;5029931;28;20033;-61
2022/05/01 09:34:18;;;;;;;3.55;2.25;;;33.00;1.00;;;;;;5048359;28;20024;-61
2022/05/01 09:37:18;;;;;;;2.97;1.70;;;33.10;1.00;;;;;;5031622;28;20064;-62
2022/05/01 09:39:48;;;;;;;3.35;1.58;;;32.70;1.00;;;;;;5049216;28;20079;-61
2022/05/01 09:42:54;;;;;;;506.17;44.38;;;33.20;1.00;;;;;;5033996;28;20396;-60
2022/05/01 09:46:37;;;;;;;6.28;2.03;;;32.80;1.00;;;;;;5039277;28;20751;-61
2022/05/01 09:50:06;;;;;;;3.20;1.77;;;32.70;1.00;;;;;;5009368;28;20033;-58
2022/05/01 09:53:31;;;;;;;2.28;1.70;;;31.70;1.00;;;;;;5033078;28;20600;-60
2022/05/01 09:57:06;;;;;;;7.50;2.58;;;29.70;1.00;;;;;;5029861;28;20045;-59
2022/05/01 10:00:31;;;;;;;3.92;1.85;;;27.60;1.00;;;;;;5026631;28;20037;-58
2022/05/01 10:04:02;;;;;;;3.65;2.33;;;26.40;1.00;;;;;;5031305;28;20057;-59
2022/05/01 10:07:28;;;;;;;4.18;2.20;;;25.00;1.00;;;;;;5022057;28;20370;-61
2022/05/01 10:10:53;;;;;;;2.33;2.10;;;24.60;1.00;;;;;;5026658;28;20033;-60
2022/05/01 10:13:39;;;;;;;5.85;2.42;;;24.40;1.00;;;;;;5039974;28;20761;-60
2022/05/01 10:16:11;;;;;;;4.15;2.60;;;24.10;1.00;;;;;;5043503;28;20060;-60
2022/05/01 10:19:17;;;;;;;4.20;2.30;;;23.70;1.00;;;;;;5013824;28;20109;-60
2022/05/01 10:22:42;;;;;;;3.78;2.60;;;23.60;1.40;;;;;;5034359;28;20033;-59
2022/05/01 10:26:07;;;;;;;4.35;3.78;;;23.20;1.60;;;;;;5012813;28;20038;-59
2022/05/01 10:29:16;;;;;;;4.22;2.75;;;22.70;2.20;;;;;;5025132;28;20394;-60
2022/05/01 10:32:30;;;;;;;3.60;2.33;;;22.20;3.30;;;;;;5011030;28;20079;-61
2022/05/01 10:35:45;;;;;;;4.18;2.65;;;21.90;3.20;;;;;;5036217;28;20041;-59
2022/05/01 10:39:31;;;;;;;3.03;2.28;;;21.70;4.00;;;;;;5043639;28;20139;-59
2022/05/01 10:43:15;;;;;;;5.07;2.00;;;21.50;4.50;;;;;;5018779;28;20083;-59
2022/05/01 10:46:20;;;;;;;3.90;1.98;;;21.30;5.20;;;;;;5011083;28;20675;-60
2022/05/01 10:49:52;;;;;;;6.38;2.10;;;21.10;5.90;;;;;;5022128;28;20095;-60
2022/05/01 10:53:28;;;;;;;5.90;2.33;;;21.10;5.70;;;;;;5020956;28;20037;-60
2022/05/01 10:56:57;;;;;;;2.80;2.30;;;20.60;5.60;;;;;;5017039;28;20497;-59
2022/05/01 11:00:25;;;;;;;4.35;2.00;;;20.30;7.00;;;;;;5023107;28;20029;-60
2022/05/01 11:04:11;;;;;;;3.25;2.10;;;20.20;7.20;;;;;;5024201;28;20044;-60
2022/05/01 11:07:39;;;;;;;4.10;2.13;;;20.00;6.60;;;;;;5019283;28;20053;-60
2022/05/01 11:11:02;;;;;;;4.07;1.50;;;20.00;7.00;;;;;;5025202;28;20038;-60
2022/05/01 11:14:28;;;;;;;2.92;1.40;;;19.90;7.60;;;;;;5029218;28;20040;-57
2022/05/01 11:17:36;;;;;;;3.65;1.55;;;19.80;7.60;;;;;;5017023;28;20485;-58
2022/05/01 11:20:21;;;;;;;6.00;2.90;;;19.90;7.40;;;;;;5022630;28;20077;-58
2022/05/01 11:24:05;;;;;;;3.47;2.10;;;19.80;6.70;;;;;;5026773;28;20042;-57
2022/05/01 11:27:32;;;;;;;3.70;2.55;;;19.80;7.20;;;;;;5024174;28;20090;-58
2022/05/01 11:30:27;;;;;;;5.25;2.58;;;19.70;7.40;;;;;;5045492;28;20055;-59
2022/05/01 11:33:52;;;;;;;3.22;2.10;;;19.50;7.40;;;;;;5034846;28;20520;-57
2022/05/01 11:37:03;;;;;;;2.60;1.92;;;19.50;8.50;;;;;;5027957;28;20068;-59
2022/05/01 11:39:48;;;;;;;3.03;2.40;;;19.40;8.30;;;;;;5026480;28;20648;-57
2022/05/01 11:43:32;;;;;;;3.55;2.13;;;19.30;8.50;;;;;;5013394;28;20513;-56
2022/05/01 11:46:57;;;;;;;2.50;1.63;;;19.20;9.60;;;;;;5016973;28;20042;-57
2022/05/01 11:50:24;;;;;;;3.58;2.00;;;19.30;9.10;;;;;;5016507;28;20045;-56
2022/05/01 11:53:57;;;;;;;3.95;2.17;;;19.20;8.90;;;;;;5030928;28;20045;-59
2022/05/01 12:04:11;;;;;;;7.57;3.25;;;18.90;10.10;;;;;;5013478;28;20091;-56
2022/05/01 12:07:36;;;;;;;2.75;2.35;;;18.90;10.20;;;;;;5004947;28;20436;-58
2022/05/01 12:11:05;;;;;;;3.63;2.35;;;18.70;10.40;;;;;;5004670;28;20030;-58
2022/05/01 12:14:30;;;;;;;4.47;2.53;;;18.80;10.10;;;;;;5030252;28;20040;-58
2022/05/01 12:17:59;;;;;;;2.95;2.35;;;18.60;10.30;;;;;;5038374;28;20087;-55
2022/05/01 12:21:24;;;;;;;6.53;3.88;;;18.70;9.90;;;;;;5044191;28;20068;-58
2022/05/01 12:24:50;;;;;;;7.32;3.65;;;18.40;9.20;;;;;;5031066;28;20037;-58
2022/05/01 12:28:15;;;;;;;7.95;3.22;;;18.40;9.50;;;;;;5035854;28;20152;-58
2022/05/01 12:31:40;;;;;;;4.72;3.60;;;18.40;9.60;;;;;;5044635;28;20033;-58
2022/05/01 12:34:46;;;;;;;4.82;3.80;;;18.30;9.60;;;;;;5038994;28;20041;-59
2022/05/01 12:38:11;;;;;;;6.05;3.67;;;18.20;9.50;;;;;;5037398;28;20044;-58
2022/05/01 12:45:25;;;;;;;4.82;3.03;;;17.90;9.20;;;;;;5034440;28;20614;-56
2022/05/01 12:48:50;;;;;;;6.88;3.25;;;17.90;8.80;;;;;;5030752;28;20049;-57
2022/05/01 12:52:15;;;;;;;4.60;2.97;;;17.70;8.90;;;;;;5008087;28;20072;-57
2022/05/01 12:55:30;;;;;;;5.00;2.83;;;17.80;9.10;;;;;;5038528;28;20049;-58
2022/05/01 12:58:56;;;;;;;5.13;2.85;;;17.80;8.70;;;;;;5020742;28;20577;-57
2022/05/01 13:02:21;;;;;;;5.82;2.78;;;17.90;8.40;;;;;;5008979;28;20057;-57
2022/05/01 13:05:47;;;;;;;4.90;2.60;;;17.90;8.30;;;;;;5044142;28;20805;-58
2022/05/01 13:08:58;;;;;;;2.72;2.47;;;17.90;8.20;;;;;;5042168;28;20090;-57
2022/05/01 13:11:58;;;;;;;3.90;3.15;;;17.80;8.30;;;;;;5029657;28;20090;-59
2022/05/01 13:14:33;;;;;;;6.03;2.83;;;17.90;8.20;;;;;;5047916;28;20050;-61
2022/05/01 13:17:10;;;;;;;7.75;2.70;;;17.80;8.20;;;;;;5046361;28;20554;-57
2022/05/01 13:19:38;;;;;;;4.28;2.80;;;17.80;8.30;;;;;;5048311;28;20519;-57
2022/05/01 13:22:05;;;;;;;3.55;2.40;;;17.70;8.40;;;;;;5027762;28;20037;-58
2022/05/01 13:24:39;;;;;;;3.92;2.42;;;17.50;8.70;;;;;;5038756;28;20025;-58
2022/05/01 13:27:07;;;;;;;2.95;2.33;;;17.40;8.70;;;;;;5045615;28;20459;-58
2022/05/01 13:29:34;;;;;;;2.75;2.30;;;17.30;9.10;;;;;;5048238;28;20075;-57
2022/05/01 13:32:40;;;;;;;2.83;1.98;;;17.10;9.00;;;;;;5027038;28;20473;-59
2022/05/01 13:36:05;;;;;;;3.03;1.80;;;17.10;9.40;;;;;;5042739;28;20107;-56
2022/05/01 13:46:19;;;;;;;2.72;1.95;;;16.90;9.60;;;;;;5047859;28;20040;-59
2022/05/01 13:49:44;;;;;;;4.32;2.03;;;16.80;10.00;;;;;;5021106;28;20513;-57
2022/05/01 13:53:13;;;;;;;2.80;1.73;;;16.80;10.90;;;;;;5036592;28;20040;-58
2022/05/01 13:56:35;;;;;;;5.25;1.67;;;16.60;9.60;;;;;;5026912;28;20041;-57
2022/05/01 14:00:00;;;;;;;3.88;1.35;;;16.60;9.70;;;;;;5037677;28;20573;-58
2022/05/01 14:03:26;;;;;;;8.30;2.00;;;16.50;10.30;;;;;;5036371;28;20048;-57
2022/05/01 14:06:51;;;;;;;4.53;1.65;;;16.50;10.00;;;;;;5031256;28;20481;-57
2022/05/01 14:10:16;;;;;;;4.72;1.70;;;16.40;9.70;;;;;;5043337;28;20041;-56
2022/05/01 14:13:42;;;;;;;2.80;2.00;;;16.40;10.10;;;;;;5033707;28;20053;-58
2022/05/01 14:17:07;;;;;;;3.85;1.73;;;16.30;10.20;;;;;;5026090;28;20052;-58
2022/05/01 14:20:32;;;;;;;4.10;1.55;;;16.10;10.60;;;;;;5023828;28;20045;-55
2022/05/01 14:23:58;;;;;;;2.78;1.48;;;16.00;11.00;;;;;;5033138;28;20073;-54
2022/05/01 14:27:23;;;;;;;3.13;1.55;;;16.00;11.60;;;;;;5020646;28;20048;-57
2022/05/01 14:30:49;;;;;;;4.80;1.58;;;16.00;11.30;;;;;;5026299;28;20450;-57
2022/05/01 14:34:29;;;;;;;2.97;2.10;;;16.00;11.60;;;;;;5029093;28;20037;-58
2022/05/01 14:38:01;;;;;;;3.55;1.80;;;15.80;12.00;;;;;;5042912;28;20048;-58
2022/05/01 14:41:26;;;;;;;2.40;1.75;;;15.70;12.50;;;;;;5035010;28;20517;-59
2022/05/01 14:44:51;;;;;;;2.40;1.77;;;15.60;12.70;;;;;;5005794;28;20049;-60
2022/05/01 14:48:03;;;;;;;2.08;1.63;;;15.60;13.20;;;;;;5037157;28;20114;-57
2022/05/01 14:51:28;;;;;;;2.88;1.75;;;15.50;13.50;;;;;;5028495;28;20095;-58
2022/05/01 14:54:54;;;;;;;4.60;2.10;;;15.50;13.70;;;;;;5034212;28;20504;-57
2022/05/01 15:08:34;;;;;;;3.67;1.80;;;15.30;15.90;;;;;;5045208;28;20047;-58
2022/05/01 15:11:59;;;;;;;4.28;2.10;;;15.30;16.30;;;;;;5034809;28;20032;-58
2022/05/01 15:14:25;;;;;;;3.97;2.13;;;15.20;17.00;;;;;;5007156;28;20481;-57
2022/05/01 15:17:04;;;;;;;3.53;1.90;;;15.20;16.00;;;;;;5020086;28;20029;-57
2022/05/01 15:19:54;;;;;;;3.55;2.28;;;15.30;16.30;;;;;;5005061;28;20085;-54
2022/05/01 15:22:40;;;;;;;3.60;2.03;;;15.40;16.10;;;;;;5009686;28;20024;-56
2022/05/01 15:25:12;;;;;;;2.60;1.80;;;15.50;16.60;;;;;;5044435;28;20163;-56
2022/05/01 15:27:49;;;;;;;5.85;4.10;;;15.60;16.00;;;;;;5028359;28;20032;-56
2022/05/01 15:30:16;;;;;;;13.43;8.75;;;15.60;16.40;;;;;;5044832;28;20538;-59
2022/05/01 15:35:41;;;;;;;6.60;3.95;;;15.70;16.30;;;;;;5005121;28;20052;-57
2022/05/01 15:38:19;;;;;;;4.68;2.95;;;15.70;16.40;;;;;;5030086;28;20021;-59
2022/05/01 15:40:47;;;;;;;5.50;3.63;;;15.60;16.50;;;;;;5005118;28;20706;-62
2022/05/01 15:43:14;;;;;;;4.13;2.78;;;15.60;16.40;;;;;;5041872;28;20036;-61
2022/05/01 15:45:56;;;;;;;6.32;2.75;;;15.60;16.50;;;;;;5024847;28;20525;-62
2022/05/01 15:53:36;;;;;;;3.20;2.65;;;15.60;16.90;;;;;;5025949;28;20029;-61
2022/05/01 15:53:58;;;;;;;5.75;2.55;;;15.60;16.90;;;;;;5020005;28;20079;-62
2022/05/01 15:56:25;;;;;;;7.35;3.35;;;15.70;16.70;;;;;;5030650;28;20037;-61
2022/05/01 15:58:51;;;;;;;5.88;2.83;;;15.80;17.00;;;;;;5042276;28;20146;-62
2022/05/01 16:01:56;;;;;;;4.97;2.60;;;15.80;17.20;;;;;;5016088;28;20037;-62
2022/05/01 16:05:21;;;;;;;4.30;3.25;;;15.90;17.40;;;;;;5038083;28;20040;-62
2022/05/01 16:08:31;;;;;;;7.13;3.80;;;15.90;17.00;;;;;;5025894;28;20493;-62
2022/05/01 16:11:22;;;;;;;7.47;3.92;;;15.80;17.20;;;;;;5037235;28;20492;-62
2022/05/01 16:15:00;;;;;;;5.60;3.25;;;15.70;17.10;;;;;;5037900;28;20206;-62
2022/05/01 16:18:11;;;;;;;5.68;3.97;;;15.60;17.40;;;;;;5031955;28;20408;-62
2022/05/01 16:21:35;;;;;;;3.88;3.20;;;15.50;17.90;;;;;;5028487;28;20119;-62
2022/05/01 16:25:03;;;;;;;4.05;3.00;;;15.50;18.40;;;;;;5029428;28;20029;-62
2022/05/01 16:28:01;;;;;;;;;;;15.40;18.40;;;;;;5035620;28;20515;-62
2022/05/01 16:31:26;;;;;;;4.53;3.08;;;15.30;19.20;;;;;;5016398;28;19955;-63
2022/05/01 16:34:54;;;;;;;4.57;2.17;;;15.30;18.50;;;;;;5031406;28;20658;-62